Time;durP1;ratioP1;P1;durP2;ratioP2;P2;SDS_P1;SDS_P2;PMS_P1;PMS_P2;Temp;Humidity;BMP_temperature;BMP_pressure;BME280_temperature;BME280_humidity;BME280_pressure;Samples;Min_cycle;Max_cycle;Signal;HPM_P1;HPM_P2
2024/03/05 00:00:17;;;;;;;;;;;;;;;18.59;61.46;100264.19;7385947;19;1457;-35
2024/03/05 00:02:46;;;;;;;;;;;;;;;18.56;61.79;100264.47;7386452;19;1270;-36
2024/03/05 00:05:18;;;;;;;;;;;;;;;18.56;61.82;100256.44;7386514;19;1551;-36
2024/03/05 00:07:46;;;;;;;;;;;;;;;18.56;61.78;100251.09;7385554;19;1437;-36
2024/03/05 00:10:15;;;;;;;;;;;;;;;18.57;61.39;100250.09;7386592;19;1447;-36
2024/03/05 00:12:43;;;;;;;;;;;;;;;18.56;61.64;100250.22;7388472;19;1086;-36
2024/03/05 00:15:12;;;;;;;;;;;;;;;18.58;61.44;100251.78;7393712;19;1838;-36
2024/03/05 00:17:40;;;;;;;;;;;;;;;18.58;61.44;100248.25;7393128;19;1591;-36
2024/03/05 00:20:17;;;;;;;;;;;;;;;18.50;61.87;100248.97;7393046;19;1152;-35
2024/03/05 00:22:50;;;;;;;;;;;;;;;18.57;61.70;100251.94;7393833;19;1375;-36
2024/03/05 00:25:18;;;;;;;;;;;;;;;18.59;61.66;100249.94;7392617;19;1539;-35
2024/03/05 00:27:48;;;;;;;;;;;;;;;18.46;61.92;100239.53;7393037;19;1211;-36
2024/03/05 00:30:18;;;;;;;;;;;;;;;18.56;61.84;100242.19;7392741;19;1275;-36
2024/03/05 00:32:47;;;;;;;;;;;;;;;18.59;61.40;100233.88;7390647;19;1631;-35
2024/03/05 00:35:16;;;;;;;;;;;;;;;18.63;61.36;100230.75;7393497;19;1618;-35
2024/03/05 00:37:44;;;;;;;;;;;;;;;18.60;61.31;100236.41;7393204;19;1291;-36
2024/03/05 00:40:15;;;;;;;;;;;;;;;18.49;61.74;100241.94;7392679;19;1242;-36
2024/03/05 00:42:44;;;;;;;;;;;;;;;18.53;61.78;100232.63;7391933;19;1331;-35
2024/03/05 00:45:12;;;;;;;;;;;;;;;18.51;61.78;100242.63;7392912;19;1531;-35
2024/03/05 00:47:41;;;;;;;;;;;;;;;18.44;61.90;100225.44;7377710;19;1599;-36
2024/03/05 00:50:11;;;;;;;;;;;;;;;18.29;61.80;100182.25;7392545;19;1277;-37
2024/03/05 00:52:39;;;;;;;;;;;;;;;18.55;61.77;100238.69;7393460;19;1047;-36
2024/03/05 00:55:08;;;;;;;;;;;;;;;18.62;61.55;100233.56;7392601;19;1490;-36
2024/03/05 00:57:39;;;;;;;;;;;;;;;18.57;61.56;100234.03;7389845;19;1859;-37
2024/03/05 01:00:08;;;;;;;;;;;;;;;18.56;61.53;100232.34;7391984;19;1831;-35
2024/03/05 01:02:37;;;;;;;;;;;;;;;18.63;61.30;100224.56;7392909;19;1274;-35
2024/03/05 01:05:09;;;;;;;;;;;;;;;18.49;61.48;100218.69;7391867;19;1163;-36
2024/03/05 01:07:38;;;;;;;;;;;;;;;18.44;61.69;100220.97;7393038;19;1559;-37
2024/03/05 01:10:07;;;;;;;;;;;;;;;18.47;61.57;100223.34;7392093;19;1521;-36
2024/03/05 01:12:36;;;;;;;;;;;;;;;18.49;61.78;100237.41;7392002;19;1195;-36
2024/03/05 01:15:07;;;;;;;;;;;;;;;18.54;61.52;100230.78;7391529;19;1489;-36
2024/03/05 01:17:35;;;;;;;;;;;;;;;18.47;61.82;100236.72;7389914;19;1848;-37
2024/03/05 01:20:04;;;;;;;;;;;;;;;18.48;61.72;100235.75;7391173;19;1667;-37
2024/03/05 01:22:32;;;;;;;;;;;;;;;18.40;62.02;100226.72;7391936;19;1637;-36
2024/03/05 01:25:01;;;;;;;;;;;;;;;18.36;61.96;100242.22;7389413;19;1481;-36
2024/03/05 01:27:29;;;;;;;;;;;;;;;18.49;61.49;100232.06;7392223;19;1617;-37
2024/03/05 01:29:59;;;;;;;;;;;;;;;18.46;61.80;100239.53;7390578;19;1497;-36
2024/03/05 01:32:30;;;;;;;;;;;;;;;18.33;62.06;100234.50;7391956;19;1523;-34
2024/03/05 01:34:59;;;;;;;;;;;;;;;18.34;62.08;100221.97;7391205;19;1834;-38
2024/03/05 01:37:27;;;;;;;;;;;;;;;18.45;61.88;100219.13;7390713;19;1865;-37
2024/03/05 01:39:55;;;;;;;;;;;;;;;18.49;61.41;100228.56;7391576;19;1019;-36
2024/03/05 01:42:24;;;;;;;;;;;;;;;18.44;61.68;100222.78;7390753;19;1571;-37
2024/03/05 01:44:52;;;;;;;;;;;;;;;18.48;61.57;100227.72;7390300;19;1572;-36
2024/03/05 01:47:21;;;;;;;;;;;;;;;18.40;61.60;100222.25;7373486;19;2159;-36
2024/03/05 01:49:52;;;;;;;;;;;;;;;18.33;61.96;100222.97;7390552;19;1489;-35
2024/03/05 01:52:20;;;;;;;;;;;;;;;18.45;61.71;100227.16;7391845;19;990;-35
2024/03/05 01:54:49;;;;;;;;;;;;;;;18.41;61.62;100221.25;7390534;19;1232;-36
2024/03/05 01:57:18;;;;;;;;;;;;;;;18.35;61.87;100219.16;7390027;19;1857;-36
2024/03/05 01:59:46;;;;;;;;;;;;;;;18.40;61.51;100202.63;7390274;19;1564;-36
2024/03/05 02:02:14;;;;;;;;;;;;;;;18.42;61.51;100216.72;7387514;19;1318;-36
2024/03/05 02:04:44;;;;;;;;;;;;;;;18.37;61.85;100225.19;7390098;19;1674;-37
2024/03/05 02:07:17;;;;;;;;;;;;;;;18.33;61.67;100218.44;7389281;19;1274;-37
2024/03/05 02:09:46;;;;;;;;;;;;;;;18.26;61.88;100231.56;7390263;19;1465;-36
2024/03/05 02:12:15;;;;;;;;;;;;;;;18.37;62.02;100219.84;7390208;19;1602;-35
2024/03/05 02:14:43;;;;;;;;;;;;;;;18.98;60.46;100217.66;7389302;19;1243;-36
2024/03/05 02:17:12;;;;;;;;;;;;;;;19.71;58.76;100217.66;7388376;19;1845;-36
2024/03/05 02:19:47;;;;;;;;;;;;;;;19.94;58.28;100226.09;7389580;19;1176;-36
2024/03/05 02:22:18;;;;;;;;;;;;;;;20.16;57.72;100227.44;7389093;19;1214;-36
2024/03/05 02:24:47;;;;;;;;;;;;;;;20.25;57.60;100225.63;7390068;19;1039;-36
2024/03/05 02:27:16;;;;;;;;;;;;;;;20.35;57.47;100228.22;7388430;19;1554;-41
2024/03/05 02:29:45;;;;;;;;;;;;;;;20.34;57.53;100229.25;7389609;19;1587;-48
2024/03/05 02:32:13;;;;;;;;;;;;;;;20.39;57.40;100213.47;7388414;19;1524;-35
2024/03/05 02:34:42;;;;;;;;;;;;;;;20.43;57.09;100222.91;7388822;19;1611;-36
2024/03/05 02:37:12;;;;;;;;;;;;;;;20.51;57.40;100224.81;7387336;19;1870;-35
2024/03/05 02:39:43;;;;;;;;;;;;;;;20.54;57.36;100211.06;7388246;19;1227;-35
2024/03/05 02:42:11;;;;;;;;;;;;;;;20.56;57.08;100219.81;7388821;19;1275;-35
2024/03/05 02:44:40;;;;;;;;;;;;;;;20.60;57.02;100219.34;7388196;19;1184;-35
2024/03/05 02:47:08;;;;;;;;;;;;;;;20.67;56.97;100219.56;7373879;19;1306;-35
2024/03/05 02:49:36;;;;;;;;;;;;;;;20.75;56.85;100232.19;7388441;19;1149;-36
2024/03/05 02:52:06;;;;;;;;;;;;;;;20.41;57.59;100233.84;7388300;19;1112;-36
2024/03/05 02:54:35;;;;;;;;;;;;;;;20.21;58.21;100225.13;7388069;19;1503;-36
2024/03/05 02:57:07;;;;;;;;;;;;;;;20.33;58.01;100232.91;7387306;19;1846;-35
2024/03/05 02:59:36;;;;;;;;;;;;;;;20.23;58.23;100236.56;7387943;19;1204;-36
2024/03/05 03:02:05;;;;;;;;;;;;;;;20.26;58.21;100241.59;7387664;19;1440;-43
2024/03/05 03:04:33;;;;;;;;;;;;;;;20.23;58.23;100233.88;7387974;19;1564;-35
2024/03/05 03:07:01;;;;;;;;;;;;;;;20.20;58.38;100236.03;7388067;19;1463;-36
2024/03/05 03:09:29;;;;;;;;;;;;;;;20.20;58.27;100239.53;7388019;19;1560;-36
2024/03/05 03:11:58;;;;;;;;;;;;;;;20.22;58.34;100237.53;7387374;19;1365;-36
2024/03/05 03:14:29;;;;;;;;;;;;;;;20.25;58.26;100231.88;7386873;19;1282;-36
2024/03/05 03:16:57;;;;;;;;;;;;;;;20.18;58.37;100241.53;7387112;19;1855;-37
2024/03/05 03:19:26;;;;;;;;;;;;;;;20.23;58.23;100235.69;7387684;19;1160;-36
2024/03/05 03:21:54;;;;;;;;;;;;;;;20.31;58.07;100242.97;7387904;19;1539;-36
2024/03/05 03:24:22;;;;;;;;;;;;;;;20.32;57.91;100241.97;7387535;19;1602;-35
2024/03/05 03:26:51;;;;;;;;;;;;;;;20.36;58.01;100229.94;7384684;19;1791;-36
2024/03/05 03:29:19;;;;;;;;;;;;;;;20.38;57.76;100249.41;7388096;19;1007;-35
2024/03/05 03:31:50;;;;;;;;;;;;;;;20.46;57.95;100246.78;7388045;19;978;-36
2024/03/05 03:34:19;;;;;;;;;;;;;;;20.48;57.75;100241.25;7387260;19;1919;-36
2024/03/05 03:36:47;;;;;;;;;;;;;;;20.45;57.71;100245.94;7386637;19;1845;-35
2024/03/05 03:39:23;;;;;;;;;;;;;;;20.43;57.80;100242.56;7387139;19;1160;-35
2024/03/05 03:41:53;;;;;;;;;;;;;;;20.41;57.92;100239.19;7388001;19;1627;-35
2024/03/05 03:44:22;;;;;;;;;;;;;;;20.48;57.80;100239.41;7387139;19;1592;-36
2024/03/05 03:46:53;;;;;;;;;;;;;;;20.44;57.72;100249.63;7386747;19;1416;-36
2024/03/05 03:49:23;;;;;;;;;;;;;;;20.42;57.93;100230.13;7380106;19;1055;-37
2024/03/05 03:51:51;;;;;;;;;;;;;;;20.14;58.00;100183.78;7392893;19;1492;-37
2024/03/05 03:54:20;;;;;;;;;;;;;;;20.42;57.94;100235.50;7391199;19;1766;-36
2024/03/05 03:56:48;;;;;;;;;;;;;;;20.39;58.10;100235.84;7393835;19;1843;-35
2024/03/05 03:59:17;;;;;;;;;;;;;;;20.45;58.00;100223.59;7394230;19;1780;-35
2024/03/05 04:01:47;;;;;;;;;;;;;;;20.00;58.92;100222.78;7394065;19;1406;-37
2024/03/05 04:04:18;;;;;;;;;;;;;;;19.66;59.73;100223.47;7393766;19;1417;-36
2024/03/05 04:06:47;;;;;;;;;;;;;;;19.45;60.09;100229.09;7394195;19;1796;-36
2024/03/05 04:09:16;;;;;;;;;;;;;;;19.37;60.41;100215.59;7394092;19;1556;-36
2024/03/05 04:11:46;;;;;;;;;;;;;;;19.29;60.35;100231.63;7393344;19;1137;-36
2024/03/05 04:14:14;;;;;;;;;;;;;;;19.27;60.22;100228.25;7393446;19;1452;-36
2024/03/05 04:16:43;;;;;;;;;;;;;;;19.18;60.18;100213.91;7394377;19;1845;-37
2024/03/05 04:19:11;;;;;;;;;;;;;;;19.13;60.44;100220.72;7393991;19;1077;-36
2024/03/05 04:21:46;;;;;;;;;;;;;;;19.04;60.40;100225.13;7394490;19;1631;-35
2024/03/05 04:24:16;;;;;;;;;;;;;;;19.03;60.45;100218.06;7393394;19;1559;-35
2024/03/05 04:26:48;;;;;;;;;;;;;;;18.99;60.51;100216.69;7392794;19;1137;-36
2024/03/05 04:29:19;;;;;;;;;;;;;;;18.97;60.72;100222.19;7393893;19;1394;-36
2024/03/05 04:32:04;;;;;;;;;;;;;;;18.90;61.01;100218.44;7393863;19;1007;-36
2024/03/05 04:34:35;;;;;;;;;;;;;;;18.86;60.85;100211.66;7392184;19;1810;-35
2024/03/05 04:37:09;;;;;;;;;;;;;;;18.84;60.98;100210.97;7392692;19;1865;-37
2024/03/05 04:39:38;;;;;;;;;;;;;;;18.83;61.11;100230.72;7393346;19;1904;-36
2024/03/05 04:42:06;;;;;;;;;;;;;;;18.83;60.97;100211.97;7393954;19;1576;-37
2024/03/05 04:44:35;;;;;;;;;;;;;;;18.81;61.02;100224.66;7392231;19;1315;-37
2024/03/05 04:47:04;;;;;;;;;;;;;;;18.76;61.18;100218.88;7392248;19;1190;-36
2024/03/05 04:49:32;;;;;;;;;;;;;;;18.82;61.15;100231.69;7378108;19;1319;-36
2024/03/05 04:52:00;;;;;;;;;;;;;;;18.76;61.27;100241.16;7393241;19;1057;-36
2024/03/05 04:54:33;;;;;;;;;;;;;;;18.80;61.26;100226.50;7391952;19;1200;-36
2024/03/05 04:57:01;;;;;;;;;;;;;;;18.79;61.21;100221.25;7391974;19;1856;-36
2024/03/05 04:59:30;;;;;;;;;;;;;;;18.75;61.22;100218.03;7388760;19;1211;-36
2024/03/05 05:01:58;;;;;;;;;;;;;;;18.77;61.15;100245.50;7391781;19;1433;-36
2024/03/05 05:04:27;;;;;;;;;;;;;;;18.69;61.24;100222.13;7390661;19;1295;-35
2024/03/05 05:06:56;;;;;;;;;;;;;;;18.66;61.30;100238.50;7391498;19;1468;-36
2024/03/05 05:09:24;;;;;;;;;;;;;;;18.60;61.69;100236.41;7387924;19;1370;-36
2024/03/05 05:11:55;;;;;;;;;;;;;;;18.90;61.65;100236.31;7388809;19;1242;-36
2024/03/05 05:14:24;;;;;;;;;;;;;;;19.26;61.01;100245.34;7391559;19;1484;-37
2024/03/05 05:16:52;;;;;;;;;;;;;;;19.11;61.25;100242.28;7386573;19;1763;-36
2024/03/05 05:19:21;;;;;;;;;;;;;;;18.96;61.73;100238.41;7391732;19;1104;-36
2024/03/05 05:21:51;;;;;;;;;;;;;;;18.83;62.64;100244.13;7390104;19;1318;-36
2024/03/05 05:24:19;;;;;;;;;;;;;;;18.81;62.54;100254.13;7391333;19;1560;-35
2024/03/05 05:26:48;;;;;;;;;;;;;;;18.65;62.67;100260.91;7391242;19;1557;-36
2024/03/05 05:29:18;;;;;;;;;;;;;;;18.65;62.76;100250.19;7391717;19;1611;-52
2024/03/05 05:31:47;;;;;;;;;;;;;;;18.72;62.53;100261.19;7390296;19;1291;-36
2024/03/05 05:34:15;;;;;;;;;;;;;;;18.55;62.57;100254.75;7391969;19;1423;-38
2024/03/05 05:36:43;;;;;;;;;;;;;;;18.56;63.03;100256.44;7390669;19;1191;-35
2024/03/05 05:39:12;;;;;;;;;;;;;;;18.54;63.12;100269.09;7389670;19;1862;-35
2024/03/05 05:41:40;;;;;;;;;;;;;;;18.52;63.49;100276.44;7387640;19;1382;-35
2024/03/05 05:44:08;;;;;;;;;;;;;;;18.24;62.43;100276.38;7391859;19;1409;-35
2024/03/05 05:46:39;;;;;;;;;;;;;;;18.08;60.71;100286.78;7392465;19;1218;-35
2024/03/05 05:49:07;;;;;;;;;;;;;;;18.39;62.39;100286.63;7372898;19;1821;-36
2024/03/05 05:51:38;;;;;;;;;;;;;;;18.40;62.75;100291.84;7389884;19;1569;-36
2024/03/05 05:54:10;;;;;;;;;;;;;;;18.46;62.82;100296.63;7389131;19;1564;-36
2024/03/05 05:56:38;;;;;;;;;;;;;;;18.62;62.75;100290.69;7389364;19;1609;-34
2024/03/05 05:59:08;;;;;;;;;;;;;;;18.91;62.10;100281.72;7386262;19;1841;-36
2024/03/05 06:01:40;;;;;;;;;;;;;;;19.11;61.62;100287.00;7385537;19;1402;-35
2024/03/05 06:04:11;;;;;;;;;;;;;;;19.12;61.26;100288.69;7387316;19;1394;-37
2024/03/05 06:06:39;;;;;;;;;;;;;;;18.80;61.98;100284.56;7386862;19;1563;-35
2024/03/05 06:09:08;;;;;;;;;;;;;;;18.80;62.10;100285.44;7386422;19;1465;-35
2024/03/05 06:11:37;;;;;;;;;;;;;;;18.74;62.10;100283.31;7386295;19;1456;-35
2024/03/05 06:14:06;;;;;;;;;;;;;;;18.74;62.00;100288.69;7386870;19;1485;-36
2024/03/05 06:16:34;;;;;;;;;;;;;;;18.64;62.09;100296.72;7390503;19;1028;-35
2024/03/05 06:19:07;;;;;;;;;;;;;;;18.69;62.17;100289.09;7387955;19;1865;-35
2024/03/05 06:21:35;;;;;;;;;;;;;;;18.71;61.90;100314.91;7390132;19;1548;-35
2024/03/05 06:24:04;;;;;;;;;;;;;;;18.64;61.81;100288.69;7389441;19;1449;-35
2024/03/05 06:26:36;;;;;;;;;;;;;;;18.62;61.88;100298.72;7389947;19;1499;-35
2024/03/05 06:29:06;;;;;;;;;;;;;;;18.57;61.95;100306.31;7388592;19;1469;-34
2024/03/05 06:31:34;;;;;;;;;;;;;;;18.50;62.38;100297.16;7389828;19;1606;-35
2024/03/05 06:34:10;;;;;;;;;;;;;;;18.58;62.44;100289.28;7388820;19;1148;-35
2024/03/05 06:36:39;;;;;;;;;;;;;;;18.80;62.00;100290.81;7388642;19;1093;-35
2024/03/05 06:39:19;;;;;;;;;;;;;;;18.94;61.42;100280.59;7386677;19;1845;-35
2024/03/05 06:41:52;;;;;;;;;;;;;;;19.02;61.29;100288.72;7389406;19;1452;-35
2024/03/05 06:44:25;;;;;;;;;;;;;;;19.04;61.19;100282.25;7388899;19;1461;-38
2024/03/05 06:46:54;;;;;;;;;;;;;;;19.05;60.95;100289.28;7388267;19;1277;-36
2024/03/05 06:49:27;;;;;;;;;;;;;;;19.11;60.83;100277.13;7374284;19;1430;-35
2024/03/05 06:56:39;;;;;;;;;;;;;;;19.14;60.88;100297.44;7389659;19;1054;-35
2024/03/05 06:57:25;;;;;;;;;;;;;;;19.21;60.62;100285.13;7389020;19;1247;-35
2024/03/05 06:59:53;;;;;;;;;;;;;;;19.21;60.51;100293.16;7387689;19;1492;-35
2024/03/05 07:02:23;;;;;;;;;;;;;;;19.26;60.48;100290.91;7387653;19;1578;-36
2024/03/05 07:04:54;;;;;;;;;;;;;;;19.19;60.39;100279.91;7388126;19;1555;-37
2024/03/05 07:07:22;;;;;;;;;;;;;;;19.23;60.63;100291.19;7388687;19;1445;-35
2024/03/05 07:09:50;;;;;;;;;;;;;;;19.28;60.50;100302.31;7387206;19;1394;-37
2024/03/05 07:12:20;;;;;;;;;;;;;;;19.27;60.32;100295.25;7389049;19;1339;-34
2024/03/05 07:14:48;;;;;;;;;;;;;;;19.30;60.21;100280.69;7387762;19;1379;-35
2024/03/05 07:17:16;;;;;;;;;;;;;;;19.27;60.46;100277.31;7388331;19;1397;-35
2024/03/05 07:19:45;;;;;;;;;;;;;;;19.30;60.27;100291.44;7386575;19;1851;-34
2024/03/05 07:22:15;;;;;;;;;;;;;;;19.31;60.21;100288.59;7386691;19;1394;-35
2024/03/05 07:24:44;;;;;;;;;;;;;;;19.38;60.08;100288.88;7394974;19;1397;-34
2024/03/05 07:27:12;;;;;;;;;;;;;;;19.35;60.34;100289.16;7394650;19;1496;-35
2024/03/05 07:29:40;;;;;;;;;;;;;;;19.39;60.02;100285.19;7394640;19;1739;-36
2024/03/05 07:32:10;;;;;;;;;;;;;;;19.38;60.04;100288.88;7395528;19;1491;-35
2024/03/05 07:34:38;;;;;;;;;;;;;;;19.39;60.03;100295.91;7395320;19;1406;-35
2024/03/05 07:37:06;;;;;;;;;;;;;;;19.40;59.90;100329.78;7394854;19;1431;-36
2024/03/05 07:39:37;;;;;;;;;;;;;;;19.45;59.95;100284.56;7391275;19;1852;-36
2024/03/05 07:42:06;;;;;;;;;;;;;;;19.52;59.76;100290.16;7394734;19;1475;-36
2024/03/05 07:44:35;;;;;;;;;;;;;;;19.54;59.70;100296.25;7394743;19;1516;-36
2024/03/05 07:47:04;;;;;;;;;;;;;;;19.51;59.78;100285.81;7394027;19;1357;-36
2024/03/05 07:49:32;;;;;;;;;;;;;;;19.52;59.79;100287.50;7379757;19;1340;-36
2024/03/05 07:52:00;;;;;;;;;;;;;;;19.54;59.69;100299.78;7395197;19;1382;-36
2024/03/05 07:54:28;;;;;;;;;;;;;;;19.55;59.62;100304.13;7393472;19;1399;-36
2024/03/05 07:56:59;;;;;;;;;;;;;;;19.53;59.69;100287.34;7391190;19;1660;-36
2024/03/05 07:59:28;;;;;;;;;;;;;;;19.34;60.26;100293.69;7388493;19;1879;-36
2024/03/05 08:01:57;;;;;;;;;;;;;;;19.22;60.70;100310.97;7393460;19;1192;-36
2024/03/05 08:04:26;;;;;;;;;;;;;;;19.40;60.07;100300.28;7394013;19;1488;-35
2024/03/05 08:06:55;;;;;;;;;;;;;;;19.80;59.19;100291.03;7393859;19;1082;-35
2024/03/05 08:09:23;;;;;;;;;;;;;;;19.96;58.77;100293.03;7393503;19;1301;-36
2024/03/05 08:11:52;;;;;;;;;;;;;;;20.08;58.50;100296.31;7394303;19;1623;-35
2024/03/05 08:14:23;;;;;;;;;;;;;;;20.04;58.51;100287.72;7393023;19;1508;-38
2024/03/05 08:16:51;;;;;;;;;;;;;;;19.76;59.26;100289.66;7394321;19;1485;-37
2024/03/05 08:19:20;;;;;;;;;;;;;;;19.52;59.80;100290.16;7389995;19;1865;-35
2024/03/05 08:21:48;;;;;;;;;;;;;;;19.34;60.38;100285.63;7393646;19;1542;-35
2024/03/05 08:24:17;;;;;;;;;;;;;;;19.29;60.45;100285.22;7392886;19;1536;-35
2024/03/05 08:26:45;;;;;;;;;;;;;;;19.54;59.85;100304.31;7389648;19;1414;-37
2024/03/05 08:29:14;;;;;;;;;;;;;;;19.79;59.25;100290.16;7392206;19;1188;-35
2024/03/05 08:31:44;;;;;;;;;;;;;;;19.94;58.92;100301.22;7393356;19;1498;-35
2024/03/05 08:34:13;;;;;;;;;;;;;;;20.03;58.67;100292.25;7391002;19;1410;-35
2024/03/05 08:36:43;;;;;;;;;;;;;;;20.09;58.73;100290.78;7393274;19;1498;-36
2024/03/05 08:39:17;;;;;;;;;;;;;;;20.05;58.50;100290.28;7372553;19;2505;-36
2024/03/05 08:41:46;;;;;;;;;;;;;;;20.06;58.63;100304.53;7390976;19;1338;-35
2024/03/05 08:44:15;;;;;;;;;;;;;;;20.04;58.79;100290.41;7390370;19;1611;-36
2024/03/05 08:46:46;;;;;;;;;;;;;;;20.01;58.82;100291.53;7390364;19;1348;-34
2024/03/05 08:49:14;;;;;;;;;;;;;;;20.03;58.84;100300.31;7376313;19;1405;-35
2024/03/05 08:51:45;;;;;;;;;;;;;;;20.10;58.63;100294.34;7390842;19;1554;-35
2024/03/05 08:54:13;;;;;;;;;;;;;;;20.14;58.46;100304.59;7388369;19;1188;-35
2024/03/05 08:56:42;;;;;;;;;;;;;;;20.20;58.63;100303.97;7390872;19;1559;-35
2024/03/05 08:59:10;;;;;;;;;;;;;;;20.20;58.62;100297.78;7388478;19;1880;-35
2024/03/05 09:01:39;;;;;;;;;;;;;;;20.29;58.12;100293.31;7387051;19;1437;-35
2024/03/05 09:04:09;;;;;;;;;;;;;;;20.27;58.33;100305.06;7389419;19;1502;-35
2024/03/05 09:06:38;;;;;;;;;;;;;;;20.34;58.32;100286.47;7389264;19;1443;-35
2024/03/05 09:09:11;;;;;;;;;;;;;;;20.34;58.25;100304.44;7391732;19;1532;-35
2024/03/05 09:11:39;;;;;;;;;;;;;;;20.32;58.09;100293.84;7391616;19;1156;-35
2024/03/05 09:14:08;;;;;;;;;;;;;;;20.37;57.97;100290.69;7392943;19;1073;-35
2024/03/05 09:16:37;;;;;;;;;;;;;;;20.42;57.95;100301.81;7392940;19;1034;-35
2024/03/05 09:19:05;;;;;;;;;;;;;;;20.44;57.87;100297.13;7389206;19;1841;-35
2024/03/05 09:21:36;;;;;;;;;;;;;;;20.45;57.87;100291.59;7390313;19;1408;-35
2024/03/05 09:24:06;;;;;;;;;;;;;;;20.45;57.42;100307.72;7388319;19;1149;-35
2024/03/05 09:26:35;;;;;;;;;;;;;;;20.45;57.35;100299.66;7390732;19;1471;-35
2024/03/05 09:29:03;;;;;;;;;;;;;;;20.44;56.96;100291.75;7391750;19;1566;-35
2024/03/05 09:31:32;;;;;;;;;;;;;;;20.48;56.20;100293.13;7390780;19;1108;-35
2024/03/05 09:34:02;;;;;;;;;;;;;;;20.42;56.33;100281.16;7390458;19;1203;-35
2024/03/05 09:36:30;;;;;;;;;;;;;;;20.42;55.99;100304.50;7389749;19;1179;-36
2024/03/05 09:39:03;;;;;;;;;;;;;;;20.48;55.54;100308.41;7387426;19;1849;-35
2024/03/05 09:41:33;;;;;;;;;;;;;;;20.43;55.47;100285.53;7389516;19;1199;-36
2024/03/05 09:44:03;;;;;;;;;;;;;;;20.43;55.06;100290.06;7387534;19;1299;-36
2024/03/05 09:46:33;;;;;;;;;;;;;;;20.46;54.55;100295.13;7385134;19;1211;-35
2024/03/05 09:49:01;;;;;;;;;;;;;;;20.53;54.17;100282.75;7372226;19;2326;-35
2024/03/05 09:51:31;;;;;;;;;;;;;;;20.59;54.24;100284.84;7388129;19;1452;-35
2024/03/05 09:54:06;;;;;;;;;;;;;;;20.52;54.37;100290.97;7389530;19;1270;-35
2024/03/05 09:56:34;;;;;;;;;;;;;;;20.17;54.11;100290.84;7389287;19;1281;-35
2024/03/05 09:59:04;;;;;;;;;;;;;;;20.08;54.25;100291.78;7388601;19;1846;-35
2024/03/05 10:01:34;;;;;;;;;;;;;;;20.25;53.68;100292.75;7389074;19;1394;-35
2024/03/05 10:04:05;;;;;;;;;;;;;;;20.46;53.43;100295.13;7389942;19;1513;-35
2024/03/05 10:06:33;;;;;;;;;;;;;;;20.59;53.68;100294.72;7389185;19;1357;-35
2024/03/05 10:09:05;;;;;;;;;;;;;;;20.62;53.95;100295.25;7389181;19;1385;-35
2024/03/05 10:11:33;;;;;;;;;;;;;;;19.88;52.47;100279.53;7387588;19;1461;-35
2024/03/05 10:14:05;;;;;;;;;;;;;;;19.32;52.54;100301.03;7389385;19;1457;-35
2024/03/05 10:16:34;;;;;;;;;;;;;;;19.12;51.49;100288.69;7390529;19;1227;-35
2024/03/05 10:19:13;;;;;;;;;;;;;;;18.80;50.96;100285.44;7388969;19;1862;-35
2024/03/05 10:21:41;;;;;;;;;;;;;;;18.82;50.73;100282.59;7388808;19;1496;-35
2024/03/05 10:24:13;;;;;;;;;;;;;;;18.89;50.90;100294.44;7388496;19;1290;-35
2024/03/05 10:26:43;;;;;;;;;;;;;;;18.87;50.62;100291.06;7389489;19;1136;-35
2024/03/05 10:29:12;;;;;;;;;;;;;;;18.90;51.53;100296.13;7388857;19;1172;-35
2024/03/05 10:31:42;;;;;;;;;;;;;;;18.87;51.69;100285.69;7389149;19;1477;-35
2024/03/05 10:34:11;;;;;;;;;;;;;;;18.88;51.82;100284.72;7388423;19;1332;-35
2024/03/05 10:36:42;;;;;;;;;;;;;;;18.98;51.42;100284.66;7388871;19;1536;-35
2024/03/05 10:39:13;;;;;;;;;;;;;;;19.01;51.08;100287.88;7388700;19;1854;-35
2024/03/05 10:41:42;;;;;;;;;;;;;;;18.90;50.80;100280.06;7388234;19;1564;-35
2024/03/05 10:44:11;;;;;;;;;;;;;;;18.50;50.68;100278.41;7386144;19;1485;-35
2024/03/05 10:46:41;;;;;;;;;;;;;;;18.94;49.05;100292.16;7387447;19;1424;-35
2024/03/05 10:49:11;;;;;;;;;;;;;;;19.16;48.92;100300.81;7379176;19;1770;-36
2024/03/05 10:51:40;;;;;;;;;;;;;;;19.22;48.29;100270.75;7383873;19;1373;-35
2024/03/05 10:54:08;;;;;;;;;;;;;;;19.38;47.70;100287.03;7385930;19;1441;-35
2024/03/05 10:56:39;;;;;;;;;;;;;;;19.90;47.94;100272.19;7384699;19;1649;-35
2024/03/05 11:01:49;;;;;;;;;;;;;;;19.39;49.36;100275.28;7383194;19;1411;-36
2024/03/05 11:04:19;;;;;;;;;;;;;;;18.92;48.77;100278.06;7386576;19;1548;-36
2024/03/05 11:06:51;;;;;;;;;;;;;;;19.21;49.39;100269.06;7386406;19;1489;-37
2024/03/05 11:09:21;;;;;;;;;;;;;;;19.73;48.50;100274.69;7386188;19;1186;-36
2024/03/05 11:11:52;;;;;;;;;;;;;;;19.71;48.83;100274.00;7386771;19;1153;-36
2024/03/05 11:14:21;;;;;;;;;;;;;;;19.33;49.15;100275.88;7385432;19;1219;-36
2024/03/05 11:16:57;;;;;;;;;;;;;;;19.02;49.26;100278.88;7385727;19;1533;-36
2024/03/05 11:19:26;;;;;;;;;;;;;;;19.20;49.03;100270.03;7385846;19;1911;-36
2024/03/05 11:21:55;;;;;;;;;;;;;;;19.30;48.77;100273.53;7386651;19;1101;-36
2024/03/05 11:24:23;;;;;;;;;;;;;;;19.33;48.09;100262.47;7385187;19;1207;-36
2024/03/05 11:27:01;;;;;;;;;;;;;;;19.13;49.04;100264.44;7385818;19;1172;-36
2024/03/05 11:29:38;;;;;;;;;;;;;;;18.91;49.22;100254.94;7386338;19;1625;-37
2024/03/05 11:32:06;;;;;;;;;;;;;;;18.96;49.78;100267.88;7382673;19;2737;-37
2024/03/05 11:34:35;;;;;;;;;;;;;;;19.39;49.09;100232.38;7386279;19;1079;-36
2024/03/05 11:37:08;;;;;;;;;;;;;;;19.67;48.76;100235.03;7385428;19;1832;-36
2024/03/05 11:39:43;;;;;;;;;;;;;;;19.28;49.23;100228.09;7384910;19;1843;-36
2024/03/05 11:42:20;;;;;;;;;;;;;;;19.20;49.77;100238.72;7385361;19;1544;-36
2024/03/05 11:44:55;;;;;;;;;;;;;;;19.32;49.93;100239.38;7384536;19;1199;-36
2024/03/05 11:47:24;;;;;;;;;;;;;;;19.45;50.32;100237.16;7384975;19;1392;-36
2024/03/05 11:49:53;;;;;;;;;;;;;;;19.89;49.38;100249.00;7369414;19;1158;-36
2024/03/05 11:52:22;;;;;;;;;;;;;;;19.60;50.14;100225.91;7385212;19;1218;-37
2024/03/05 11:55:05;;;;;;;;;;;;;;;19.46;50.95;100241.53;7383458;19;1164;-36
2024/03/05 11:57:36;;;;;;;;;;;;;;;19.92;49.92;100229.94;7383017;19;1405;-35
2024/03/05 12:00:06;;;;;;;;;;;;;;;20.40;49.10;100232.13;7380306;19;1855;-37
2024/03/05 12:02:35;;;;;;;;;;;;;;;20.49;49.28;100224.97;7381046;19;1520;-36
2024/03/05 12:05:06;;;;;;;;;;;;;;;20.54;49.14;100238.78;7380883;19;1274;-36
2024/03/05 12:07:35;;;;;;;;;;;;;;;20.78;48.75;100226.50;7380946;19;1583;-36
2024/03/05 12:10:05;;;;;;;;;;;;;;;20.87;48.81;100220.19;7388228;19;1436;-37
2024/03/05 12:12:35;;;;;;;;;;;;;;;20.94;48.77;100215.81;7386882;19;2322;-36
2024/03/05 12:15:04;;;;;;;;;;;;;;;20.92;48.97;100215.16;7391011;19;1212;-36
2024/03/05 12:17:35;;;;;;;;;;;;;;;20.88;49.33;100208.41;7392682;19;1603;-36
2024/03/05 12:20:07;;;;;;;;;;;;;;;20.92;49.41;100212.47;7391758;19;1869;-36
2024/03/05 12:22:36;;;;;;;;;;;;;;;21.01;49.29;100221.41;7391980;19;1049;-37
2024/03/05 12:25:04;;;;;;;;;;;;;;;21.05;49.38;100209.34;7389360;19;1429;-36
2024/03/05 12:27:34;;;;;;;;;;;;;;;21.09;49.42;100215.19;7392370;19;1200;-37
2024/03/05 12:30:06;;;;;;;;;;;;;;;21.01;49.45;100208.81;7391561;19;1234;-36
2024/03/05 12:32:36;;;;;;;;;;;;;;;21.05;49.65;100215.53;7393274;19;1529;-36
2024/03/05 12:35:05;;;;;;;;;;;;;;;21.13;49.50;100203.13;7393657;19;1289;-36
2024/03/05 12:37:34;;;;;;;;;;;;;;;21.15;49.58;100198.41;7393168;19;1517;-36
2024/03/05 12:40:07;;;;;;;;;;;;;;;21.13;49.73;100211.19;7393398;19;1855;-36
2024/03/05 12:42:35;;;;;;;;;;;;;;;21.08;49.90;100186.66;7394197;19;1158;-36
2024/03/05 12:45:11;;;;;;;;;;;;;;;21.12;49.99;100196.91;7393941;19;1496;-36
2024/03/05 12:47:40;;;;;;;;;;;;;;;21.16;49.93;100194.75;7392146;19;2447;-36
2024/03/05 12:50:09;;;;;;;;;;;;;;;21.19;49.91;100183.66;7377969;19;1160;-36
2024/03/05 12:52:37;;;;;;;;;;;;;;;21.16;50.06;100200.13;7392731;19;1175;-36
2024/03/05 12:55:07;;;;;;;;;;;;;;;21.09;50.36;100207.13;7391543;19;1512;-36
2024/03/05 12:57:36;;;;;;;;;;;;;;;21.09;50.46;100189.19;7391572;19;1606;-36
2024/03/05 13:00:10;;;;;;;;;;;;;;;21.17;50.17;100201.78;7391422;19;1851;-36
2024/03/05 13:02:41;;;;;;;;;;;;;;;21.18;50.23;100198.09;7388966;19;1101;-37
2024/03/05 13:05:10;;;;;;;;;;;;;;;21.14;50.42;100199.44;7391418;19;1552;-36